Time;durP1;ratioP1;P1;durP2;ratioP2;P2;SDS_P1;SDS_P2;PMS_P1;PMS_P2;Temp;Humidity;BMP_temperature;BMP_pressure;BME280_temperature;BME280_humidity;BME280_pressure;Samples;Min_cycle;Max_cycle;Signal;HPM_P1;HPM_P2
2021/10/27 00:00:05;;;;;;;;;;;;;;;22.04;51.88;100920.91;2091537;28;950;-57
2021/10/27 00:01:05;;;;;;;;;;;;;;;22.07;51.86;100911.84;2091461;28;846;-56
2021/10/27 00:02:06;;;;;;;;;;;;;;;22.01;53.23;100915.63;2091193;28;807;-57
2021/10/27 00:03:06;;;;;;;;;;;;;;;22.06;51.33;100919.03;2091694;28;816;-56
2021/10/27 00:04:06;;;;;;;;;;;;;;;22.06;52.03;100908.25;2091439;28;1910;-56
2021/10/27 00:05:06;;;;;;;;;;;;;;;22.03;52.01;100912.88;2091477;28;974;-56
2021/10/27 00:06:07;;;;;;;;;;;;;;;22.04;52.74;100910.13;2091493;28;834;-56
2021/10/27 00:07:07;;;;;;;;;;;;;;;21.98;52.87;100918.44;2091368;28;782;-56
2021/10/27 00:08:07;;;;;;;;;;;;;;;21.96;52.31;100912.22;2091506;28;851;-57
2021/10/27 00:09:09;;;;;;;;;;;;;;;21.95;52.01;100918.56;2091528;28;839;-56
2021/10/27 00:10:09;;;;;;;;;;;;;;;21.95;51.25;100915.84;2091360;28;794;-56
2021/10/27 00:11:10;;;;;;;;;;;;;;;21.96;52.33;100914.06;2091479;28;864;-56
2021/10/27 00:12:10;;;;;;;;;;;;;;;21.99;51.73;100917.50;2091216;28;857;-57
2021/10/27 00:13:10;;;;;;;;;;;;;;;22.02;51.67;100916.53;2091475;28;1266;-56
2021/10/27 00:14:11;;;;;;;;;;;;;;;21.99;51.74;100917.50;2091418;28;984;-57
2021/10/27 00:15:12;;;;;;;;;;;;;;;21.99;51.66;100917.50;2091285;28;921;-56
2021/10/27 00:16:13;;;;;;;;;;;;;;;21.95;52.13;100923.94;2091455;28;807;-56
2021/10/27 00:17:13;;;;;;;;;;;;;;;21.95;53.03;100920.38;2091408;28;859;-56
2021/10/27 00:18:13;;;;;;;;;;;;;;;21.91;53.50;100923.19;2091056;28;974;-56
2021/10/27 00:19:13;;;;;;;;;;;;;;;21.91;53.28;100919.59;2091494;28;851;-57
2021/10/27 00:20:14;;;;;;;;;;;;;;;21.93;53.87;100923.13;2091435;28;796;-56
2021/10/27 00:21:14;;;;;;;;;;;;;;;22.00;52.65;100927.34;2091484;28;779;-57
2021/10/27 00:22:15;;;;;;;;;;;;;;;22.00;53.28;100926.50;2091369;28;1238;-56
2021/10/27 00:23:15;;;;;;;;;;;;;;;21.99;51.99;100917.50;2091174;28;882;-56
2021/10/27 00:24:15;;;;;;;;;;;;;;;21.95;51.71;100925.78;2091247;28;1939;-56
2021/10/27 00:25:16;;;;;;;;;;;;;;;21.92;52.39;100924.06;2091587;28;684;-56
2021/10/27 00:26:16;;;;;;;;;;;;;;;21.92;51.59;100922.25;2091349;28;806;-57
2021/10/27 00:27:16;;;;;;;;;;;;;;;21.87;52.23;100913.47;2091433;28;867;-57
2021/10/27 00:28:16;;;;;;;;;;;;;;;21.91;51.05;100915.09;2091403;28;942;-56
2021/10/27 00:29:17;;;;;;;;;;;;;;;21.92;52.83;100910.56;2091403;28;1220;-57
2021/10/27 00:30:18;;;;;;;;;;;;;;;21.92;52.87;100918.66;2091465;28;857;-57
2021/10/27 00:31:18;;;;;;;;;;;;;;;21.95;51.68;100920.38;2091125;28;837;-56
2021/10/27 00:32:19;;;;;;;;;;;;;;;21.94;50.61;100919.50;2091356;28;948;-56
2021/10/27 00:33:19;;;;;;;;;;;;;;;21.97;51.38;100926.59;2091408;28;920;-57
2021/10/27 00:34:19;;;;;;;;;;;;;;;21.89;52.45;100929.56;2092872;28;795;-56
2021/10/27 00:35:19;;;;;;;;;;;;;;;21.84;51.72;100918.97;2093117;28;878;-57
2021/10/27 00:36:20;;;;;;;;;;;;;;;21.82;52.04;100928.03;2093009;28;1036;-57
2021/10/27 00:37:20;;;;;;;;;;;;;;;21.77;51.36;100926.41;2093015;28;1191;-56
2021/10/27 00:38:20;;;;;;;;;;;;;;;21.79;51.61;100920.97;2093047;28;846;-56
2021/10/27 00:39:21;;;;;;;;;;;;;;;21.80;51.32;100919.13;2093014;28;1001;-57
2021/10/27 00:40:21;;;;;;;;;;;;;;;21.83;51.16;100916.31;2093064;28;822;-56
2021/10/27 00:41:21;;;;;;;;;;;;;;;21.89;52.41;100933.16;2092994;28;984;-56
2021/10/27 00:42:21;;;;;;;;;;;;;;;21.88;52.91;100927.81;2093022;28;1137;-56
2021/10/27 00:43:22;;;;;;;;;;;;;;;21.92;51.90;100934.84;2092979;28;1955;-56
2021/10/27 00:44:24;;;;;;;;;;;;;;;21.90;52.68;100934.94;2092828;28;862;-56
2021/10/27 00:45:24;;;;;;;;;;;;;;;21.88;52.05;100927.81;2092927;28;1025;-57
2021/10/27 00:46:25;;;;;;;;;;;;;;;21.86;51.41;100929.69;2092978;28;1194;-56
2021/10/27 00:47:25;;;;;;;;;;;;;;;21.86;53.04;100932.38;2092761;28;787;-57
2021/10/27 00:48:25;;;;;;;;;;;;;;;21.82;52.10;100926.25;2092806;28;807;-56
2021/10/27 00:49:26;;;;;;;;;;;;;;;21.84;51.88;100927.06;2092989;28;1417;-56
2021/10/27 00:50:26;;;;;;;;;;;;;;;21.89;52.33;100929.56;2093061;28;928;-56
2021/10/27 00:51:27;;;;;;;;;;;;;;;21.88;51.67;100934.09;2092988;28;922;-56
2021/10/27 00:52:27;;;;;;;;;;;;;;;21.92;51.15;100932.16;2092922;28;839;-56
2021/10/27 00:53:27;;;;;;;;;;;;;;;21.81;51.51;100932.56;2092895;28;997;-56
2021/10/27 00:54:27;;;;;;;;;;;;;;;21.82;51.70;100928.94;2092935;28;1048;-57
2021/10/27 00:55:28;;;;;;;;;;;;;;;21.80;51.89;100932.59;2092819;28;1045;-56
2021/10/27 00:56:28;;;;;;;;;;;;;;;21.80;51.54;100940.69;2092836;28;1074;-56
2021/10/27 00:57:29;;;;;;;;;;;;;;;21.76;51.97;100934.56;2092941;28;787;-56
2021/10/27 00:58:29;;;;;;;;;;;;;;;21.79;51.68;100930.84;2092517;28;807;-56
2021/10/27 00:59:29;;;;;;;;;;;;;;;21.83;52.59;100938.78;2092904;28;989;-56
2021/10/27 01:00:30;;;;;;;;;;;;;;;21.87;51.60;100932.34;2092908;28;1056;-57
2021/10/27 01:01:30;;;;;;;;;;;;;;;21.89;51.30;100935.84;2092924;28;1059;-57
2021/10/27 01:02:30;;;;;;;;;;;;;;;21.84;52.44;100928.88;2092874;28;727;-57
2021/10/27 01:03:32;;;;;;;;;;;;;;;21.85;52.31;100939.59;2092673;28;1910;-57
2021/10/27 01:04:32;;;;;;;;;;;;;;;21.85;52.81;100941.41;2092870;28;783;-57
2021/10/27 01:05:32;;;;;;;;;;;;;;;21.85;51.67;100934.22;2092869;28;1107;-57
2021/10/27 01:06:32;;;;;;;;;;;;;;;21.84;51.42;100927.06;2092734;28;780;-56
2021/10/27 01:07:33;;;;;;;;;;;;;;;21.83;52.25;100940.59;2092876;28;876;-57
2021/10/27 01:08:34;;;;;;;;;;;;;;;21.83;51.93;100944.19;2092777;28;1395;-57
2021/10/27 01:09:35;;;;;;;;;;;;;;;21.74;51.52;100940.00;2092504;28;1256;-56
2021/10/27 01:10:35;;;;;;;;;;;;;;;21.76;51.60;100934.56;2092690;28;1200;-57
2021/10/27 01:11:35;;;;;;;;;;;;;;;21.82;51.95;100938.81;2092932;28;1018;-56
2021/10/27 01:12:36;;;;;;;;;;;;;;;21.86;51.67;100944.06;2092802;28;1040;-56
2021/10/27 01:13:36;;;;;;;;;;;;;;;21.84;51.05;100935.16;2092782;28;1044;-56
2021/10/27 01:14:38;;;;;;;;;;;;;;;21.80;51.90;100927.22;2092610;28;760;-57
2021/10/27 01:15:38;;;;;;;;;;;;;;;21.79;52.69;100923.66;2092603;28;1047;-56
2021/10/27 01:16:39;;;;;;;;;;;;;;;21.76;51.60;100932.75;2092789;28;889;-56
2021/10/27 01:17:39;;;;;;;;;;;;;;;21.74;51.98;100931.03;2092802;28;918;-57
2021/10/27 01:18:39;;;;;;;;;;;;;;;21.77;52.77;100925.53;2092719;28;802;-56
2021/10/27 01:19:47;;;;;;;;;;;;;;;21.79;51.17;100926.34;2092760;28;1040;-56
2021/10/27 01:20:47;;;;;;;;;;;;;;;21.79;51.84;100925.44;2092490;28;836;-56
2021/10/27 01:21:47;;;;;;;;;;;;;;;21.75;52.66;100931.00;2092774;28;795;-56
2021/10/27 01:22:48;;;;;;;;;;;;;;;21.75;51.41;100932.78;2092667;28;969;-56
2021/10/27 01:23:48;;;;;;;;;;;;;;;21.83;52.16;100927.09;2092638;28;1902;-57
2021/10/27 01:24:48;;;;;;;;;;;;;;;21.79;52.75;100925.44;2092723;28;994;-57
2021/10/27 01:25:49;;;;;;;;;;;;;;;21.76;52.20;100923.75;2092544;28;836;-56
2021/10/27 01:26:49;;;;;;;;;;;;;;;21.73;53.33;100927.47;2092649;28;859;-56
2021/10/27 01:27:49;;;;;;;;;;;;;;;21.75;51.73;100922.00;2092676;28;847;-57
2021/10/27 01:28:49;;;;;;;;;;;;;;;21.73;51.95;100919.38;2092352;28;846;-56
2021/10/27 01:29:50;;;;;;;;;;;;;;;21.70;51.81;100924.88;2092683;28;1043;-56
2021/10/27 01:30:51;;;;;;;;;;;;;;;21.67;52.07;100921.41;2092618;28;910;-57
2021/10/27 01:31:51;;;;;;;;;;;;;;;21.71;51.29;100918.56;2092311;28;981;-57
2021/10/27 01:32:51;;;;;;;;;;;;;;;21.75;51.78;100925.59;2092590;28;798;-56
2021/10/27 01:33:52;;;;;;;;;;;;;;;21.73;51.35;100926.56;2092627;28;906;-56
2021/10/27 01:34:52;;;;;;;;;;;;;;;21.72;51.21;100922.13;2092607;28;800;-57
2021/10/27 01:35:53;;;;;;;;;;;;;;;21.73;51.21;100924.78;2092569;28;973;-57
2021/10/27 01:36:53;;;;;;;;;;;;;;;21.68;51.17;100926.75;2092631;28;815;-56
2021/10/27 01:37:53;;;;;;;;;;;;;;;21.69;52.20;100927.63;2092483;28;1182;-56
2021/10/27 01:38:53;;;;;;;;;;;;;;;21.74;52.08;100923.84;2092594;28;886;-57
2021/10/27 01:39:54;;;;;;;;;;;;;;;21.69;52.14;100930.31;2092580;28;1053;-56
2021/10/27 01:40:55;;;;;;;;;;;;;;;21.67;51.50;100933.09;2092600;28;806;-56
2021/10/27 01:41:55;;;;;;;;;;;;;;;21.65;52.58;100929.56;2092417;28;891;-56
2021/10/27 01:42:56;;;;;;;;;;;;;;;21.73;51.89;100926.56;2092574;28;965;-56
2021/10/27 01:43:57;;;;;;;;;;;;;;;21.71;52.62;100929.34;2092547;28;1967;-56
2021/10/27 01:44:57;;;;;;;;;;;;;;;21.76;51.70;100926.47;2091848;28;851;-57
2021/10/27 01:45:58;;;;;;;;;;;;;;;21.80;52.24;100930.81;2091850;28;1064;-56
2021/10/27 01:46:58;;;;;;;;;;;;;;;21.79;51.62;100930.84;2092362;28;1006;-56
2021/10/27 01:47:58;;;;;;;;;;;;;;;21.71;51.08;100929.34;2092283;28;783;-57
2021/10/27 01:48:59;;;;;;;;;;;;;;;21.63;51.80;100926.03;2092544;28;858;-57
2021/10/27 01:50:00;;;;;;;;;;;;;;;21.66;51.58;100920.53;2092541;28;992;-56
2021/10/27 01:51:00;;;;;;;;;;;;;;;21.65;52.06;100925.97;2092533;28;771;-57
2021/10/27 01:52:01;;;;;;;;;;;;;;;21.68;51.67;100921.38;2092515;28;790;-58
2021/10/27 01:53:01;;;;;;;;;;;;;;;21.70;51.90;100914.09;2092312;28;865;-57
2021/10/27 01:54:01;;;;;;;;;;;;;;;21.69;52.13;100917.72;2092499;28;1048;-56
2021/10/27 01:55:02;;;;;;;;;;;;;;;21.68;51.36;100913.28;2092524;28;830;-57
2021/10/27 01:56:02;;;;;;;;;;;;;;;21.72;52.76;100914.94;2092252;28;1169;-58
2021/10/27 01:57:02;;;;;;;;;;;;;;;21.69;51.51;100912.34;2092509;28;926;-57
2021/10/27 01:58:03;;;;;;;;;;;;;;;21.69;51.91;100909.66;2092292;28;791;-57
2021/10/27 01:59:03;;;;;;;;;;;;;;;21.69;50.71;100911.44;2092433;28;1065;-57
2021/10/27 02:00:05;;;;;;;;;;;;;;;21.72;51.45;100906.84;2091779;28;2106;-56
2021/10/27 02:01:05;;;;;;;;;;;;;;;21.74;51.42;100910.34;2092065;28;986;-57
2021/10/27 02:02:05;;;;;;;;;;;;;;;21.76;51.85;100908.47;2092375;28;895;-56
2021/10/27 02:03:05;;;;;;;;;;;;;;;21.70;51.75;100913.19;2092438;28;926;-57
2021/10/27 02:04:06;;;;;;;;;;;;;;;21.63;51.73;100912.56;2092306;28;2305;-56
2021/10/27 02:05:06;;;;;;;;;;;;;;;21.66;51.82;100908.88;2092436;28;1013;-57
2021/10/27 02:06:07;;;;;;;;;;;;;;;21.69;52.63;100901.56;2092103;28;967;-57
2021/10/27 02:07:07;;;;;;;;;;;;;;;21.69;51.69;100904.25;2092264;28;918;-56
2021/10/27 02:08:07;;;;;;;;;;;;;;;21.70;53.15;100902.41;2092309;28;875;-57
2021/10/27 02:09:07;;;;;;;;;;;;;;;21.67;52.65;100911.53;2092378;28;863;-56
2021/10/27 02:10:08;;;;;;;;;;;;;;;21.63;51.58;100904.47;2092342;28;977;-57
2021/10/27 02:11:09;;;;;;;;;;;;;;;21.62;52.56;100908.09;2100004;28;779;-57
2021/10/27 02:12:09;;;;;;;;;;;;;;;21.67;52.16;100900.72;2099974;28;1064;-56
2021/10/27 02:13:10;;;;;;;;;;;;;;;21.72;52.12;100900.53;2092399;28;822;-56
2021/10/27 02:14:10;;;;;;;;;;;;;;;21.71;52.19;100907.78;2092265;28;787;-57
2021/10/27 02:15:11;;;;;;;;;;;;;;;21.69;51.52;100906.94;2092302;28;835;-56
2021/10/27 02:16:11;;;;;;;;;;;;;;;21.65;51.79;100902.59;2092294;28;989;-56
2021/10/27 02:17:12;;;;;;;;;;;;;;;21.65;51.88;100902.59;2092269;28;838;-56
2021/10/27 02:18:12;;;;;;;;;;;;;;;21.70;52.21;100897.94;2092259;28;879;-57
2021/10/27 02:19:12;;;;;;;;;;;;;;;21.66;51.80;100893.59;2092199;28;1226;-57
2021/10/27 02:20:12;;;;;;;;;;;;;;;21.68;52.04;100896.22;2091956;28;808;-56
2021/10/27 02:21:12;;;;;;;;;;;;;;;21.60;51.34;100897.34;2092285;28;988;-57
2021/10/27 02:22:13;;;;;;;;;;;;;;;21.62;52.32;100897.31;2092254;28;830;-56
2021/10/27 02:23:14;;;;;;;;;;;;;;;21.61;51.82;100896.41;2092248;28;913;-57
2021/10/27 02:24:14;;;;;;;;;;;;;;;21.64;52.64;100892.75;2092192;28;1957;-57
2021/10/27 02:25:14;;;;;;;;;;;;;;;21.68;50.75;100890.81;2091900;28;877;-57
2021/10/27 02:26:15;;;;;;;;;;;;;;;21.64;51.94;100895.44;2092256;28;799;-57
2021/10/27 02:27:15;;;;;;;;;;;;;;;21.61;51.43;100888.31;2092305;28;796;-56
2021/10/27 02:28:15;;;;;;;;;;;;;;;21.60;52.16;100889.25;2092190;28;1032;-57
2021/10/27 02:29:15;;;;;;;;;;;;;;;21.66;51.79;100882.78;2092193;28;889;-56
2021/10/27 02:30:16;;;;;;;;;;;;;;;21.68;52.17;100878.22;2092076;28;997;-56
2021/10/27 02:31:16;;;;;;;;;;;;;;;21.66;52.75;100882.78;2092146;28;871;-56
2021/10/27 02:32:16;;;;;;;;;;;;;;;21.67;52.15;100878.28;2092169;28;1103;-57
2021/10/27 02:33:16;;;;;;;;;;;;;;;21.70;51.45;100880.84;2092010;28;1025;-57
2021/10/27 02:34:16;;;;;;;;;;;;;;;21.69;51.99;100881.78;2092043;28;1107;-57
2021/10/27 02:35:17;;;;;;;;;;;;;;;21.70;52.50;100878.16;2092190;28;902;-56
2021/10/27 02:36:17;;;;;;;;;;;;;;;21.69;51.54;100879.09;2092112;28;973;-56
2021/10/27 02:37:17;;;;;;;;;;;;;;;21.69;51.51;100874.59;2092151;28;1167;-56
2021/10/27 02:38:19;;;;;;;;;;;;;;;21.67;52.01;100878.28;2092079;28;1032;-57
2021/10/27 02:39:19;;;;;;;;;;;;;;;21.61;52.39;100877.53;2092163;28;819;-56
2021/10/27 02:40:19;;;;;;;;;;;;;;;21.66;52.45;100877.41;2092028;28;1056;-56
2021/10/27 02:41:19;;;;;;;;;;;;;;;21.64;52.18;100873.00;2092075;28;803;-57
2021/10/27 02:42:20;;;;;;;;;;;;;;;21.61;51.57;100872.13;2092083;28;978;-56
2021/10/27 02:43:20;;;;;;;;;;;;;;;21.64;51.88;100873.88;2092088;28;895;-57
2021/10/27 02:44:21;;;;;;;;;;;;;;;21.63;52.01;100869.44;2091881;28;1961;-57
2021/10/27 02:45:21;;;;;;;;;;;;;;;21.67;51.39;100865.69;2092080;28;784;-56
2021/10/27 02:46:21;;;;;;;;;;;;;;;21.71;51.30;100870.03;2092040;28;827;-57
2021/10/27 02:47:22;;;;;;;;;;;;;;;21.64;52.10;100871.19;2091762;28;842;-56
2021/10/27 02:48:22;;;;;;;;;;;;;;;21.62;51.51;100871.22;2092053;28;800;-57
2021/10/27 02:49:22;;;;;;;;;;;;;;;21.62;51.88;100867.69;2092048;28;996;-57
2021/10/27 02:50:22;;;;;;;;;;;;;;;21.62;53.45;100873.94;2091718;28;974;-56
2021/10/27 02:51:22;;;;;;;;;;;;;;;21.63;52.43;100842.47;2092052;28;805;-57
2021/10/27 02:52:23;;;;;;;;;;;;;;;21.60;52.83;100837.16;2092053;28;796;-57
2021/10/27 02:53:23;;;;;;;;;;;;;;;21.58;51.58;100839.03;2091875;28;961;-57
2021/10/27 02:54:23;;;;;;;;;;;;;;;21.63;52.19;100839.78;2092001;28;1032;-56
2021/10/27 02:55:24;;;;;;;;;;;;;;;21.67;52.21;100837.84;2091977;28;989;-57
2021/10/27 02:56:24;;;;;;;;;;;;;;;21.64;52.52;100832.56;2091144;28;1361;-57
2021/10/27 02:57:25;;;;;;;;;;;;;;;21.64;51.87;100819.06;2091994;28;740;-56
2021/10/27 02:58:25;;;;;;;;;;;;;;;21.69;52.31;100844.94;2091988;28;839;-57
2021/10/27 02:59:25;;;;;;;;;;;;;;;21.67;52.15;100897.13;2092013;28;879;-57
2021/10/27 03:00:26;;;;;;;;;;;;;;;21.69;52.54;100887.19;2091968;28;870;-57
2021/10/27 03:01:26;;;;;;;;;;;;;;;21.68;52.48;100882.72;2091754;28;934;-57
2021/10/27 03:02:26;;;;;;;;;;;;;;;21.61;52.00;100884.75;2091892;28;815;-56
2021/10/27 03:03:27;;;;;;;;;;;;;;;21.65;51.50;100880.16;2091870;28;1906;-56
2021/10/27 03:04:27;;;;;;;;;;;;;;;21.65;51.58;100877.44;2091655;28;795;-56
2021/10/27 03:05:27;;;;;;;;;;;;;;;21.64;52.58;100878.38;2091857;28;945;-56
2021/10/27 03:06:27;;;;;;;;;;;;;;;21.66;52.50;100872.00;2091882;28;863;-56
2021/10/27 03:07:28;;;;;;;;;;;;;;;21.62;50.90;100878.47;2091989;28;990;-56
2021/10/27 03:08:28;;;;;;;;;;;;;;;21.59;53.00;100873.16;2091837;28;965;-57
2021/10/27 03:09:28;;;;;;;;;;;;;;;21.55;52.36;100883.13;2092020;28;785;-57
2021/10/27 03:10:28;;;;;;;;;;;;;;;21.58;52.39;100880.34;2091463;28;859;-56
2021/10/27 03:11:28;;;;;;;;;;;;;;;21.56;51.50;100870.56;2091201;28;1250;-56
2021/10/27 03:12:28;;;;;;;;;;;;;;;21.58;51.85;100855.22;2091310;28;803;-57
2021/10/27 03:13:29;;;;;;;;;;;;;;;21.62;50.98;100848.81;2091643;28;835;-56
2021/10/27 03:14:29;;;;;;;;;;;;;;;21.70;52.06;100845.81;2091859;28;823;-56
2021/10/27 03:15:29;;;;;;;;;;;;;;;21.65;52.41;100862.16;2091831;28;949;-57
2021/10/27 03:16:29;;;;;;;;;;;;;;;21.67;51.90;100863.00;2091557;28;841;-56
2021/10/27 03:17:29;;;;;;;;;;;;;;;21.70;51.30;100851.19;2091861;28;793;-57
2021/10/27 03:18:30;;;;;;;;;;;;;;;21.66;51.74;100849.56;2091748;28;872;-57
2021/10/27 03:19:30;;;;;;;;;;;;;;;21.61;53.12;100850.56;2091491;28;954;-57
2021/10/27 03:20:30;;;;;;;;;;;;;;;21.58;51.96;100842.59;2091809;28;803;-56
2021/10/27 03:21:30;;;;;;;;;;;;;;;21.65;52.03;100853.19;2091149;28;1024;-56
2021/10/27 03:22:30;;;;;;;;;;;;;;;21.65;51.97;100848.69;2091233;28;770;-57
2021/10/27 03:23:30;;;;;;;;;;;;;;;21.62;51.66;100843.41;2091749;28;1976;-56
2021/10/27 03:24:31;;;;;;;;;;;;;;;21.61;53.26;100838.94;2091413;28;830;-56
2021/10/27 03:25:31;;;;;;;;;;;;;;;21.59;52.67;100832.72;2091849;28;929;-56
2021/10/27 03:26:31;;;;;;;;;;;;;;;21.60;52.11;100837.16;2091754;28;1032;-57
2021/10/27 03:27:32;;;;;;;;;;;;;;;21.58;51.74;100831.81;2091714;28;799;-57
2021/10/27 03:28:32;;;;;;;;;;;;;;;21.58;51.54;100829.13;2091740;28;773;-56
2021/10/27 03:29:32;;;;;;;;;;;;;;;21.63;51.81;100826.31;2091677;28;768;-57
2021/10/27 03:30:33;;;;;;;;;;;;;;;21.56;51.46;100831.00;2091731;28;1327;-56
2021/10/27 03:31:33;;;;;;;;;;;;;;;21.51;51.35;100829.41;2091739;28;827;-56
2021/10/27 03:32:33;;;;;;;;;;;;;;;21.58;52.50;100826.44;2091292;28;808;-56
2021/10/27 03:33:35;;;;;;;;;;;;;;;21.63;51.63;100826.31;2091739;28;1021;-57
2021/10/27 03:34:35;;;;;;;;;;;;;;;21.61;52.01;100815.53;2091612;28;1377;-57
2021/10/27 03:35:35;;;;;;;;;;;;;;;21.57;52.63;100821.97;2091724;28;822;-57
2021/10/27 03:36:35;;;;;;;;;;;;;;;21.56;51.50;100822.03;2091685;28;832;-57
2021/10/27 03:37:36;;;;;;;;;;;;;;;21.61;52.12;100814.66;2091604;28;1147;-56
2021/10/27 03:38:36;;;;;;;;;;;;;;;21.58;51.99;100825.56;2091639;28;799;-56
2021/10/27 03:39:36;;;;;;;;;;;;;;;21.57;53.36;100824.66;2091695;28;926;-57
2021/10/27 03:40:37;;;;;;;;;;;;;;;21.59;51.84;100813.84;2091750;28;713;-57
2021/10/27 03:41:38;;;;;;;;;;;;;;;21.60;51.65;100811.06;2091640;28;846;-57
2021/10/27 03:42:38;;;;;;;;;;;;;;;21.65;52.06;100810.94;2091501;28;846;-56
2021/10/27 03:43:39;;;;;;;;;;;;;;;21.64;51.64;100813.69;2091595;28;1976;-57
2021/10/27 03:44:39;;;;;;;;;;;;;;;21.63;51.70;100812.81;2091620;28;775;-57
2021/10/27 03:45:39;;;;;;;;;;;;;;;21.63;51.86;100815.53;2091359;28;995;-57
2021/10/27 03:46:39;;;;;;;;;;;;;;;21.61;52.38;100811.97;2091629;28;870;-57
2021/10/27 03:47:40;;;;;;;;;;;;;;;21.59;52.46;100814.72;2091507;28;1154;-57
2021/10/27 03:48:40;;;;;;;;;;;;;;;21.60;52.11;100803.00;2091243;28;970;-56
2021/10/27 03:49:40;;;;;;;;;;;;;;;21.60;51.52;100807.50;2091560;28;878;-57
2021/10/27 03:50:40;;;;;;;;;;;;;;;21.56;52.24;100813.97;2091606;28;1036;-57
2021/10/27 03:51:41;;;;;;;;;;;;;;;21.61;51.46;100811.97;2091621;28;862;-57
2021/10/27 03:52:42;;;;;;;;;;;;;;;21.61;51.75;100809.28;2091617;28;858;-56
2021/10/27 03:53:42;;;;;;;;;;;;;;;21.60;51.35;100810.22;2091320;28;866;-56
2021/10/27 03:54:42;;;;;;;;;;;;;;;21.61;52.16;100809.28;2091376;28;756;-57
2021/10/27 03:55:42;;;;;;;;;;;;;;;21.60;52.21;100808.38;2091427;28;1366;-56
2021/10/27 03:56:43;;;;;;;;;;;;;;;21.57;53.07;100807.63;2091582;28;827;-57
2021/10/27 03:57:43;;;;;;;;;;;;;;;21.56;52.17;100808.56;2091582;28;989;-57
2021/10/27 03:58:43;;;;;;;;;;;;;;;21.57;51.49;100800.41;2091531;28;1292;-57
2021/10/27 03:59:43;;;;;;;;;;;;;;;21.57;52.08;100802.25;2091305;28;842;-56
2021/10/27 04:00:43;;;;;;;;;;;;;;;21.56;52.59;100801.34;2091568;28;878;-57
2021/10/27 04:01:44;;;;;;;;;;;;;;;21.58;52.81;100798.59;2091563;28;1045;-56
2021/10/27 04:02:44;;;;;;;;;;;;;;;21.59;51.36;100786.88;2091282;28;922;-56
2021/10/27 04:03:44;;;;;;;;;;;;;;;21.60;52.56;100785.94;2091402;28;1906;-57
2021/10/27 04:04:45;;;;;;;;;;;;;;;22.39;50.31;100788.22;2091521;28;894;-57
2021/10/27 04:05:45;;;;;;;;;;;;;;;22.67;49.44;100784.38;2091103;28;826;-56
2021/10/27 04:06:45;;;;;;;;;;;;;;;22.88;49.07;100776.28;2091597;28;841;-57
2021/10/27 04:07:45;;;;;;;;;;;;;;;23.00;47.64;100777.53;2091462;28;819;-56
2021/10/27 04:08:46;;;;;;;;;;;;;;;23.12;48.72;100781.53;2090767;28;985;-57
2021/10/27 04:09:46;;;;;;;;;;;;;;;23.21;48.83;100784.69;2091426;28;981;-56
2021/10/27 04:10:46;;;;;;;;;;;;;;;23.27;47.73;100771.88;2091234;28;854;-57
2021/10/27 04:11:46;;;;;;;;;;;;;;;23.29;47.61;100776.25;2091351;28;977;-56
2021/10/27 04:12:46;;;;;;;;;;;;;;;23.34;48.93;100776.06;2091468;28;850;-56
2021/10/27 04:13:47;;;;;;;;;;;;;;;23.42;49.34;100776.59;2091340;28;1032;-56
2021/10/27 04:14:47;;;;;;;;;;;;;;;23.46;46.70;100774.59;2091466;28;779;-57
2021/10/27 04:15:47;;;;;;;;;;;;;;;23.51;48.39;100773.47;2091432;28;870;-57
2021/10/27 04:16:47;;;;;;;;;;;;;;;23.56;47.84;100772.34;2091063;28;1068;-56
2021/10/27 04:17:47;;;;;;;;;;;;;;;23.64;48.02;100779.16;2082472;28;683;-57
2021/10/27 04:18:47;;;;;;;;;;;;;;;23.69;48.83;100778.94;2082730;28;842;-56
2021/10/27 04:19:49;;;;;;;;;;;;;;;23.70;47.26;100780.69;2091389;28;980;-56
2021/10/27 04:20:49;;;;;;;;;;;;;;;23.78;48.08;100777.63;2091381;28;877;-56
2021/10/27 04:21:51;;;;;;;;;;;;;;;23.79;47.42;100782.09;2091185;28;780;-56
2021/10/27 04:22:51;;;;;;;;;;;;;;;23.79;47.96;100777.53;2091386;28;802;-55
2021/10/27 04:23:51;;;;;;;;;;;;;;;23.86;48.28;100766.44;2091297;28;1951;-55
2021/10/27 04:24:52;;;;;;;;;;;;;;;23.94;48.30;100775.06;2091122;28;834;-55
2021/10/27 04:25:52;;;;;;;;;;;;;;;23.97;46.98;100772.19;2082388;28;889;-54
2021/10/27 04:26:53;;;;;;;;;;;;;;;24.01;46.86;100776.53;2082620;28;979;-55
2021/10/27 04:27:53;;;;;;;;;;;;;;;24.00;47.35;100766.66;2091226;28;838;-54
2021/10/27 04:28:53;;;;;;;;;;;;;;;23.93;49.56;100765.19;2091378;28;902;-55
2021/10/27 04:29:53;;;;;;;;;;;;;;;24.01;47.31;100764.81;2091367;28;1057;-55
2021/10/27 04:30:54;;;;;;;;;;;;;;;24.12;47.34;100766.06;2091182;28;789;-56
2021/10/27 04:31:54;;;;;;;;;;;;;;;24.07;46.71;100759.13;2091367;28;962;-57
2021/10/27 04:32:54;;;;;;;;;;;;;;;24.09;48.06;100759.91;2091306;28;885;-56
2021/10/27 04:33:54;;;;;;;;;;;;;;;24.10;47.13;100754.44;2091139;28;780;-56
2021/10/27 04:34:55;;;;;;;;;;;;;;;24.19;47.99;100749.50;2091373;28;867;-56
2021/10/27 04:35:55;;;;;;;;;;;;;;;24.21;47.27;100753.00;2091278;28;1171;-56
2021/10/27 04:36:55;;;;;;;;;;;;;;;24.20;48.34;100754.84;2091369;28;808;-56
2021/10/27 04:37:55;;;;;;;;;;;;;;;24.23;47.73;100745.69;2091246;28;1190;-56
2021/10/27 04:38:55;;;;;;;;;;;;;;;24.16;49.13;100745.13;2091338;28;1236;-56
2021/10/27 04:39:56;;;;;;;;;;;;;;;24.36;48.04;100744.13;2091350;28;863;-56
2021/10/27 04:40:56;;;;;;;;;;;;;;;24.24;45.48;100742.91;2091411;28;780;-56
2021/10/27 04:41:56;;;;;;;;;;;;;;;24.35;47.90;100745.06;2091279;28;974;-56
2021/10/27 04:42:56;;;;;;;;;;;;;;;24.29;48.86;100739.97;2091344;28;758;-56
2021/10/27 04:43:56;;;;;;;;;;;;;;;24.25;47.81;100738.38;2090852;28;1886;-56
2021/10/27 04:44:57;;;;;;;;;;;;;;;24.33;48.67;100741.56;2091336;28;989;-56
2021/10/27 04:45:57;;;;;;;;;;;;;;;24.26;48.71;100734.72;2091302;28;866;-56
2021/10/27 04:47:01;;;;;;;;;;;;;;;24.32;49.14;100741.66;2091303;28;1029;-56
2021/10/27 04:48:01;;;;;;;;;;;;;;;24.27;49.35;100731.94;2091306;28;854;-56
2021/10/27 04:49:01;;;;;;;;;;;;;;;24.27;48.12;100731.94;2091179;28;783;-57
2021/10/27 04:50:02;;;;;;;;;;;;;;;24.43;47.77;100737.44;2090981;28;978;-56
2021/10/27 04:51:03;;;;;;;;;;;;;;;24.47;47.40;100729.16;2091223;28;986;-56
2021/10/27 04:52:03;;;;;;;;;;;;;;;24.50;47.04;100737.13;2091258;28;856;-57
2021/10/27 04:53:10;;;;;;;;;;;;;;;24.53;49.48;100743.25;2091279;28;990;-56
2021/10/27 04:54:10;;;;;;;;;;;;;;;24.45;50.32;100739.19;2091265;28;854;-56
2021/10/27 04:55:11;;;;;;;;;;;;;;;24.43;48.13;100734.72;2091065;28;1640;-56
2021/10/27 04:56:11;;;;;;;;;;;;;;;24.52;47.63;100732.50;2091155;28;1293;-57
2021/10/27 04:57:11;;;;;;;;;;;;;;;24.49;48.41;100724.53;2091160;28;978;-57
2021/10/27 04:58:12;;;;;;;;;;;;;;;24.56;48.45;100734.09;2091008;28;1017;-56
2021/10/27 04:59:12;;;;;;;;;;;;;;;24.50;46.50;100723.59;2091251;28;842;-56
2021/10/27 05:00:13;;;;;;;;;;;;;;;24.50;50.01;100720.88;2091277;28;767;-56
2021/10/27 05:01:13;;;;;;;;;;;;;;;24.51;46.43;100715.38;2091305;28;1891;-56
2021/10/27 05:02:14;;;;;;;;;;;;;;;24.56;49.14;100712.44;2091253;28;973;-57
2021/10/27 05:03:15;;;;;;;;;;;;;;;24.44;48.30;100708.50;2091158;28;1041;-56
2021/10/27 05:04:15;;;;;;;;;;;;;;;24.56;48.19;100698.91;2091192;28;1914;-56
2021/10/27 05:05:17;;;;;;;;;;;;;;;24.60;47.18;100700.50;2091281;28;865;-57
2021/10/27 05:06:19;;;;;;;;;;;;;;;24.60;46.07;100697.78;2091080;28;871;-56
2021/10/27 05:07:19;;;;;;;;;;;;;;;24.63;49.34;100704.84;2091208;28;795;-57
2021/10/27 05:08:22;;;;;;;;;;;;;;;24.47;49.15;100699.38;2090985;28;1146;-56
2021/10/27 05:09:22;;;;;;;;;;;;;;;24.51;47.79;100693.72;2091249;28;887;-57
2021/10/27 05:10:22;;;;;;;;;;;;;;;24.54;47.04;100693.53;2091197;28;902;-56
2021/10/27 05:11:22;;;;;;;;;;;;;;;24.54;49.18;100695.38;2090832;28;1184;-57
2021/10/27 05:12:23;;;;;;;;;;;;;;;24.57;47.74;100700.66;2091068;28;863;-57
2021/10/27 05:13:23;;;;;;;;;;;;;;;24.54;47.67;100696.25;2091180;28;802;-56
2021/10/27 05:14:23;;;;;;;;;;;;;;;24.65;48.32;100695.72;2091137;28;920;-56
2021/10/27 05:15:23;;;;;;;;;;;;;;;24.63;48.58;100694.91;2091221;28;811;-57
2021/10/27 05:16:23;;;;;;;;;;;;;;;24.61;49.44;100686.00;2091126;28;977;-57
2021/10/27 05:17:24;;;;;;;;;;;;;;;24.60;47.70;100689.66;2091248;28;831;-56